sensor_id;sensor_type;location;lat;lon;timestamp;pressure;altitude;pressure_sealevel;temperature;humidity
43824;BME280;29470;53.550;9.926;2023-08-07T00:04:06;100078.63;;;20.35;66.74
43824;BME280;29470;53.550;9.926;2023-08-07T00:09:09;100073.38;;;20.35;66.25
43824;BME280;29470;53.550;9.926;2023-08-07T00:14:13;100063.88;;;20.43;66.57
43824;BME280;29470;53.550;9.926;2023-08-07T00:19:16;100071.41;;;20.23;67.05
43824;BME280;29470;53.550;9.926;2023-08-07T00:24:19;100060.97;;;20.28;66.21
43824;BME280;29470;53.550;9.926;2023-08-07T00:29:23;100071.53;;;20.33;66.73
43824;BME280;29470;53.550;9.926;2023-08-07T00:34:26;100069.28;;;20.05;67.73
43824;BME280;29470;53.550;9.926;2023-08-07T00:39:29;100064.09;;;20.08;67.53
43824;BME280;29470;53.550;9.926;2023-08-07T00:44:33;100071.03;;;20.05;67.76
43824;BME280;29470;53.550;9.926;2023-08-07T00:49:36;100070.75;;;19.89;69.22
43824;BME280;29470;53.550;9.926;2023-08-07T00:54:39;100071.03;;;20.05;68.05
43824;BME280;29470;53.550;9.926;2023-08-07T00:59:44;100065.13;;;20.16;66.98
43824;BME280;29470;53.550;9.926;2023-08-07T01:04:46;100068.19;;;19.92;66.98
43824;BME280;29470;53.550;9.926;2023-08-07T01:09:49;100064.97;;;20.07;67.41
43824;BME280;29470;53.550;9.926;2023-08-07T01:15:02;100065.53;;;20.38;66.22
43824;BME280;29470;53.550;9.926;2023-08-07T01:20:07;100058.22;;;20.20;67.76
43824;BME280;29470;53.550;9.926;2023-08-07T01:25:13;100059.09;;;19.78;69.77
43824;BME280;29470;53.550;9.926;2023-08-07T01:30:20;100050.44;;;19.82;70.97
43824;BME280;29470;53.550;9.926;2023-08-07T01:35:29;100044.41;;;19.87;70.84
43824;BME280;29470;53.550;9.926;2023-08-07T01:40:34;100041.38;;;20.10;69.83
43824;BME280;29470;53.550;9.926;2023-08-07T01:45:38;100043.56;;;19.88;71.26
43824;BME280;29470;53.550;9.926;2023-08-07T01:50:42;100035.16;;;19.62;72.08
43824;BME280;29470;53.550;9.926;2023-08-07T01:55:46;100040.25;;;19.96;69.70
43824;BME280;29470;53.550;9.926;2023-08-07T02:00:49;100038.91;;;19.73;71.33
43824;BME280;29470;53.550;9.926;2023-08-07T02:05:52;100040.94;;;19.88;70.50
43824;BME280;29470;53.550;9.926;2023-08-07T02:10:57;100038.84;;;19.70;71.40
43824;BME280;29470;53.550;9.926;2023-08-07T02:16:03;100041.53;;;19.75;71.30
43824;BME280;29470;53.550;9.926;2023-08-07T02:21:06;100030.25;;;19.79;69.60
43824;BME280;29470;53.550;9.926;2023-08-07T02:26:11;100024.44;;;19.93;69.70
43824;BME280;29470;53.550;9.926;2023-08-07T02:31:13;100027.25;;;19.61;69.89
43824;BME280;29470;53.550;9.926;2023-08-07T02:36:16;100031.09;;;19.77;69.28
43824;BME280;29470;53.550;9.926;2023-08-07T02:41:20;100028.09;;;19.60;68.91
43824;BME280;29470;53.550;9.926;2023-08-07T02:46:23;100018.91;;;19.37;70.56
43824;BME280;29470;53.550;9.926;2023-08-07T02:51:26;100019.38;;;19.61;70.08
43824;BME280;29470;53.550;9.926;2023-08-07T02:56:30;100029.53;;;19.45;70.57
43824;BME280;29470;53.550;9.926;2023-08-07T03:01:34;100036.16;;;19.69;70.45
43824;BME280;29470;53.550;9.926;2023-08-07T03:06:37;100030.28;;;19.38;71.12
43824;BME280;29470;53.550;9.926;2023-08-07T03:11:41;100025.91;;;19.81;70.09
43824;BME280;29470;53.550;9.926;2023-08-07T03:16:44;100028.16;;;19.61;71.50
43824;BME280;29470;53.550;9.926;2023-08-07T03:21:47;100027.09;;;19.53;70.87
43824;BME280;29470;53.550;9.926;2023-08-07T03:26:52;100028.28;;;19.67;70.64
43824;BME280;29470;53.550;9.926;2023-08-07T03:31:55;100029.44;;;19.39;72.45
43824;BME280;29470;53.550;9.926;2023-08-07T03:36:59;100032.13;;;19.42;72.57
43824;BME280;29470;53.550;9.926;2023-08-07T03:42:03;100036.47;;;19.83;70.27
43824;BME280;29470;53.550;9.926;2023-08-07T03:47:06;100036.75;;;19.55;72.98
43824;BME280;29470;53.550;9.926;2023-08-07T03:52:09;100040.94;;;19.46;74.44
43824;BME280;29470;53.550;9.926;2023-08-07T03:57:14;100034.00;;;19.49;74.25
43824;BME280;29470;53.550;9.926;2023-08-07T04:02:17;100035.97;;;19.58;75.00
43824;BME280;29470;53.550;9.926;2023-08-07T04:07:20;100033.34;;;19.60;75.63
43824;BME280;29470;53.550;9.926;2023-08-07T04:12:24;100034.00;;;19.48;76.76
43824;BME280;29470;53.550;9.926;2023-08-07T04:17:28;100024.00;;;19.72;74.83
43824;BME280;29470;53.550;9.926;2023-08-07T04:22:31;100029.47;;;19.83;74.83
43824;BME280;29470;53.550;9.926;2023-08-07T04:27:35;100024.66;;;20.05;73.98
43824;BME280;29470;53.550;9.926;2023-08-07T04:32:38;100034.88;;;19.90;74.88
43824;BME280;29470;53.550;9.926;2023-08-07T04:37:42;100028.25;;;20.09;73.83
43824;BME280;29470;53.550;9.926;2023-08-07T04:42:46;100039.84;;;20.20;73.24
43824;BME280;29470;53.550;9.926;2023-08-07T04:47:49;100042.19;;;20.05;74.37
43824;BME280;29470;53.550;9.926;2023-08-07T04:52:52;100040.16;;;19.91;75.51
43824;BME280;29470;53.550;9.926;2023-08-07T04:57:56;100044.25;;;20.23;75.09
43824;BME280;29470;53.550;9.926;2023-08-07T05:02:59;100049.50;;;20.23;75.98
43824;BME280;29470;53.550;9.926;2023-08-07T05:08:03;100040.56;;;20.62;74.95
43824;BME280;29470;53.550;9.926;2023-08-07T05:13:07;100036.00;;;20.02;76.59
43824;BME280;29470;53.550;9.926;2023-08-07T05:18:10;100028.34;;;20.64;74.75
43824;BME280;29470;53.550;9.926;2023-08-07T05:23:13;100037.38;;;20.29;75.54
43824;BME280;29470;53.550;9.926;2023-08-07T05:28:17;100028.03;;;20.47;74.00
43824;BME280;29470;53.550;9.926;2023-08-07T05:33:20;100035.34;;;20.14;75.75
43824;BME280;29470;53.550;9.926;2023-08-07T05:38:23;100034.19;;;20.49;74.32
43824;BME280;29470;53.550;9.926;2023-08-07T05:43:27;100032.59;;;20.56;75.62
43824;BME280;29470;53.550;9.926;2023-08-07T05:48:30;100031.97;;;20.22;76.06
43824;BME280;29470;53.550;9.926;2023-08-07T05:53:35;100057.69;;;19.94;76.95
43824;BME280;29470;53.550;9.926;2023-08-07T05:58:39;100039.66;;;20.60;73.76
43824;BME280;29470;53.550;9.926;2023-08-07T06:03:42;100036.44;;;21.37;70.39
43824;BME280;29470;53.550;9.926;2023-08-07T06:08:45;100031.88;;;21.23;69.19
43824;BME280;29470;53.550;9.926;2023-08-07T06:13:49;100040.47;;;21.10;67.97
43824;BME280;29470;53.550;9.926;2023-08-07T06:18:52;100039.25;;;20.86;68.17
43824;BME280;29470;53.550;9.926;2023-08-07T06:23:55;100038.69;;;21.07;66.76
43824;BME280;29470;53.550;9.926;2023-08-07T06:28:59;100040.16;;;21.49;64.43
43824;BME280;29470;53.550;9.926;2023-08-07T06:34:02;100043.75;;;20.95;64.55
43824;BME280;29470;53.550;9.926;2023-08-07T06:39:05;100045.63;;;21.63;61.83
43824;BME280;29470;53.550;9.926;2023-08-07T06:44:09;100033.63;;;21.86;60.86
43824;BME280;29470;53.550;9.926;2023-08-07T06:49:12;100037.56;;;20.93;62.35
43824;BME280;29470;53.550;9.926;2023-08-07T06:54:15;100045.97;;;21.28;62.34
43824;BME280;29470;53.550;9.926;2023-08-07T06:59:19;100049.25;;;21.10;61.71
43824;BME280;29470;53.550;9.926;2023-08-07T07:04:22;100051.09;;;21.81;59.77
43824;BME280;29470;53.550;9.926;2023-08-07T07:09:25;100087.50;;;20.91;61.65
43824;BME280;29470;53.550;9.926;2023-08-07T07:14:32;100082.75;;;20.22;69.49
43824;BME280;29470;53.550;9.926;2023-08-07T07:19:35;100079.34;;;20.26;66.93
43824;BME280;29470;53.550;9.926;2023-08-07T07:24:38;100082.16;;;20.37;66.32
43824;BME280;29470;53.550;9.926;2023-08-07T07:29:42;100085.44;;;20.74;64.58
43824;BME280;29470;53.550;9.926;2023-08-07T07:34:45;100115.38;;;20.35;64.18
43824;BME280;29470;53.550;9.926;2023-08-07T07:39:49;100097.34;;;20.54;63.55
43824;BME280;29470;53.550;9.926;2023-08-07T07:44:54;100088.16;;;21.98;55.07
43824;BME280;29470;53.550;9.926;2023-08-07T07:50:05;100067.69;;;23.77;51.61
43824;BME280;29470;53.550;9.926;2023-08-07T07:55:09;100068.78;;;24.51;47.96
43824;BME280;29470;53.550;9.926;2023-08-07T08:00:14;100072.28;;;24.34;47.38
43824;BME280;29470;53.550;9.926;2023-08-07T08:05:17;100081.66;;;22.45;49.53
43824;BME280;29470;53.550;9.926;2023-08-07T08:10:20;100125.53;;;21.12;54.08
43824;BME280;29470;53.550;9.926;2023-08-07T08:15:24;100130.09;;;20.27;66.11
43824;BME280;29470;53.550;9.926;2023-08-07T08:20:27;100144.00;;;20.69;66.04
43824;BME280;29470;53.550;9.926;2023-08-07T08:25:31;100128.41;;;21.30;64.57
43824;BME280;29470;53.550;9.926;2023-08-07T08:30:35;100144.44;;;21.46;63.58
43824;BME280;29470;53.550;9.926;2023-08-07T08:35:38;100140.03;;;20.88;63.48
43824;BME280;29470;53.550;9.926;2023-08-07T08:40:41;100143.09;;;21.71;60.80
43824;BME280;29470;53.550;9.926;2023-08-07T08:45:46;100150.56;;;22.03;58.85
43824;BME280;29470;53.550;9.926;2023-08-07T08:50:50;100152.38;;;22.11;59.11
43824;BME280;29470;53.550;9.926;2023-08-07T08:55:53;100153.03;;;21.34;59.16
43824;BME280;29470;53.550;9.926;2023-08-07T09:00:57;100165.34;;;21.37;56.11
43824;BME280;29470;53.550;9.926;2023-08-07T09:06:00;100152.75;;;21.74;53.95
43824;BME280;29470;53.550;9.926;2023-08-07T09:11:04;100167.94;;;21.93;51.40
43824;BME280;29470;53.550;9.926;2023-08-07T09:16:10;100153.97;;;22.72;49.04
43824;BME280;29470;53.550;9.926;2023-08-07T09:21:14;100169.22;;;22.24;48.11
43824;BME280;29470;53.550;9.926;2023-08-07T09:26:21;100160.94;;;22.65;47.47
43824;BME280;29470;53.550;9.926;2023-08-07T09:31:26;100171.56;;;22.74;45.47
43824;BME280;29470;53.550;9.926;2023-08-07T09:36:33;100159.94;;;23.54;44.51
43824;BME280;29470;53.550;9.926;2023-08-07T09:41:36;100159.03;;;23.49;43.91
43824;BME280;29470;53.550;9.926;2023-08-07T09:46:44;100159.84;;;23.37;43.23
43824;BME280;29470;53.550;9.926;2023-08-07T09:51:47;100170.59;;;22.64;44.47
43824;BME280;29470;53.550;9.926;2023-08-07T09:56:55;100180.69;;;23.09;43.81
43824;BME280;29470;53.550;9.926;2023-08-07T10:02:02;100186.13;;;23.26;43.30
43824;BME280;29470;53.550;9.926;2023-08-07T10:07:05;100178.34;;;22.52;45.07
43824;BME280;29470;53.550;9.926;2023-08-07T10:12:08;100178.22;;;23.28;45.45
43824;BME280;29470;53.550;9.926;2023-08-07T10:17:13;100168.94;;;23.84;43.79
43824;BME280;29470;53.550;9.926;2023-08-07T10:22:17;100179.56;;;23.96;42.13
43824;BME280;29470;53.550;9.926;2023-08-07T10:27:22;100169.09;;;24.13;41.19
43824;BME280;29470;53.550;9.926;2023-08-07T10:32:27;100197.69;;;22.54;43.01
43824;BME280;29470;53.550;9.926;2023-08-07T10:37:41;100201.56;;;22.86;42.48
43824;BME280;29470;53.550;9.926;2023-08-07T10:42:57;100191.38;;;22.41;44.55
43824;BME280;29470;53.550;9.926;2023-08-07T10:48:08;100180.84;;;22.41;44.94
43824;BME280;29470;53.550;9.926;2023-08-07T10:53:18;100173.16;;;23.57;43.43
43824;BME280;29470;53.550;9.926;2023-08-07T10:58:23;100179.75;;;24.35;41.59
43824;BME280;29470;53.550;9.926;2023-08-07T11:03:27;100192.84;;;24.07;41.08
43824;BME280;29470;53.550;9.926;2023-08-07T11:08:30;100187.47;;;23.98;40.17
43824;BME280;29470;53.550;9.926;2023-08-07T11:13:33;100199.78;;;23.91;40.25
43824;BME280;29470;53.550;9.926;2023-08-07T11:18:37;100206.25;;;22.37;46.10
43824;BME280;29470;53.550;9.926;2023-08-07T11:23:42;100233.34;;;20.69;53.94
43824;BME280;29470;53.550;9.926;2023-08-07T11:28:47;100232.22;;;21.51;53.31
43824;BME280;29470;53.550;9.926;2023-08-07T11:33:51;100231.00;;;21.30;52.11
43824;BME280;29470;53.550;9.926;2023-08-07T11:38:54;100225.13;;;22.02;51.61
43824;BME280;29470;53.550;9.926;2023-08-07T11:43:57;100221.59;;;22.68;49.58
43824;BME280;29470;53.550;9.926;2023-08-07T11:49:03;100233.34;;;22.26;49.61
43824;BME280;29470;53.550;9.926;2023-08-07T11:54:07;100243.91;;;21.16;58.43
43824;BME280;29470;53.550;9.926;2023-08-07T11:59:09;100250.66;;;21.53;59.33
43824;BME280;29470;53.550;9.926;2023-08-07T12:04:17;100249.50;;;21.89;59.00
43824;BME280;29470;53.550;9.926;2023-08-07T12:09:20;100270.88;;;21.55;58.14
43824;BME280;29470;53.550;9.926;2023-08-07T12:14:23;100280.22;;;21.38;61.19
43824;BME280;29470;53.550;9.926;2023-08-07T12:19:36;100289.72;;;20.82;60.54
43824;BME280;29470;53.550;9.926;2023-08-07T12:24:40;100291.09;;;21.09;59.99
43824;BME280;29470;53.550;9.926;2023-08-07T12:29:44;100283.34;;;21.66;58.97
43824;BME280;29470;53.550;9.926;2023-08-07T12:34:48;100275.16;;;21.48;57.71
43824;BME280;29470;53.550;9.926;2023-08-07T12:39:54;100270.56;;;21.89;56.58
43824;BME280;29470;53.550;9.926;2023-08-07T12:45:17;100294.31;;;21.92;54.82
43824;BME280;29470;53.550;9.926;2023-08-07T12:50:41;100275.84;;;21.89;54.40
43824;BME280;29470;53.550;9.926;2023-08-07T12:55:44;100288.75;;;21.75;54.58
43824;BME280;29470;53.550;9.926;2023-08-07T13:00:47;100328.13;;;21.21;57.03
43824;BME280;29470;53.550;9.926;2023-08-07T13:05:52;100308.00;;;19.97;62.32
43824;BME280;29470;53.550;9.926;2023-08-07T13:10:54;100296.72;;;20.41;60.58
43824;BME280;29470;53.550;9.926;2023-08-07T13:15:57;100301.88;;;20.78;58.02
43824;BME280;29470;53.550;9.926;2023-08-07T13:21:01;100293.59;;;20.59;56.51
43824;BME280;29470;53.550;9.926;2023-08-07T13:26:04;100296.56;;;21.19;54.02
43824;BME280;29470;53.550;9.926;2023-08-07T13:31:07;100299.44;;;21.33;52.80
43824;BME280;29470;53.550;9.926;2023-08-07T13:36:12;100311.28;;;21.60;52.19
43824;BME280;29470;53.550;9.926;2023-08-07T13:41:14;100307.72;;;22.07;53.29
43824;BME280;29470;53.550;9.926;2023-08-07T13:46:17;100316.28;;;21.96;52.58
43824;BME280;29470;53.550;9.926;2023-08-07T13:51:21;100325.09;;;22.55;47.78
43824;BME280;29470;53.550;9.926;2023-08-07T13:56:24;100333.53;;;22.32;45.27
43824;BME280;29470;53.550;9.926;2023-08-07T14:01:27;100344.44;;;21.49;46.02
43824;BME280;29470;53.550;9.926;2023-08-07T14:06:32;100351.28;;;20.95;47.69
43824;BME280;29470;53.550;9.926;2023-08-07T14:11:35;100346.03;;;20.95;47.69
43824;BME280;29470;53.550;9.926;2023-08-07T14:16:37;100362.78;;;21.44;47.31
43824;BME280;29470;53.550;9.926;2023-08-07T14:21:42;100364.34;;;20.90;47.96
43824;BME280;29470;53.550;9.926;2023-08-07T14:26:45;100388.16;;;20.98;51.22
43824;BME280;29470;53.550;9.926;2023-08-07T14:31:48;100376.59;;;21.34;50.22
43824;BME280;29470;53.550;9.926;2023-08-07T14:36:52;100389.56;;;21.69;48.50
43824;BME280;29470;53.550;9.926;2023-08-07T14:41:55;100377.78;;;21.50;47.52
43824;BME280;29470;53.550;9.926;2023-08-07T14:46:59;100378.97;;;21.20;48.76
43824;BME280;29470;53.550;9.926;2023-08-07T14:52:04;100377.78;;;21.50;47.75
43824;BME280;29470;53.550;9.926;2023-08-07T14:57:08;100398.25;;;20.78;50.53
43824;BME280;29470;53.550;9.926;2023-08-07T15:02:11;100417.31;;;20.32;54.48
43824;BME280;29470;53.550;9.926;2023-08-07T15:07:15;100407.53;;;21.01;52.60
43824;BME280;29470;53.550;9.926;2023-08-07T15:12:18;100404.56;;;21.29;51.48
43824;BME280;29470;53.550;9.926;2023-08-07T15:17:21;100418.38;;;21.17;49.22
43824;BME280;29470;53.550;9.926;2023-08-07T15:22:25;100429.03;;;21.26;48.54
43824;BME280;29470;53.550;9.926;2023-08-07T15:27:29;100432.28;;;21.57;47.83
43824;BME280;29470;53.550;9.926;2023-08-07T15:32:32;100412.66;;;20.97;50.17
43824;BME280;29470;53.550;9.926;2023-08-07T15:37:36;100398.81;;;20.66;52.86
43824;BME280;29470;53.550;9.926;2023-08-07T15:42:39;100426.44;;;20.11;53.64
43824;BME280;29470;53.550;9.926;2023-08-07T15:47:46;100436.44;;;20.63;52.66
43824;BME280;29470;53.550;9.926;2023-08-07T15:52:51;100453.88;;;19.58;65.31
43824;BME280;29470;53.550;9.926;2023-08-07T15:57:54;100493.59;;;19.10;66.07
43824;BME280;29470;53.550;9.926;2023-08-07T16:02:56;100480.97;;;18.70;66.94
43824;BME280;29470;53.550;9.926;2023-08-07T16:08:01;100469.78;;;18.76;63.58
43824;BME280;29470;53.550;9.926;2023-08-07T16:13:04;100463.06;;;19.12;61.33
43824;BME280;29470;53.550;9.926;2023-08-07T16:18:07;100464.19;;;19.84;57.17
43824;BME280;29470;53.550;9.926;2023-08-07T16:23:11;100462.44;;;19.83;57.77
43824;BME280;29470;53.550;9.926;2023-08-07T16:28:14;100449.44;;;19.88;57.17
43824;BME280;29470;53.550;9.926;2023-08-07T16:33:17;100450.06;;;20.11;56.60
43824;BME280;29470;53.550;9.926;2023-08-07T16:38:21;100446.59;;;20.12;56.56
43824;BME280;29470;53.550;9.926;2023-08-07T16:43:24;100442.19;;;20.46;52.66
43824;BME280;29470;53.550;9.926;2023-08-07T16:48:27;100445.88;;;20.55;51.82
43824;BME280;29470;53.550;9.926;2023-08-07T16:53:32;100441.38;;;21.29;50.00
43824;BME280;29470;53.550;9.926;2023-08-07T16:58:35;100450.00;;;21.22;49.49
43824;BME280;29470;53.550;9.926;2023-08-07T17:03:41;100448.66;;;20.99;49.58
43824;BME280;29470;53.550;9.926;2023-08-07T17:08:45;100456.53;;;20.63;47.45
43824;BME280;29470;53.550;9.926;2023-08-07T17:13:51;100467.19;;;20.69;47.94
43824;BME280;29470;53.550;9.926;2023-08-07T17:18:54;100468.81;;;20.25;49.75
43824;BME280;29470;53.550;9.926;2023-08-07T17:23:58;100461.50;;;20.49;50.02
43824;BME280;29470;53.550;9.926;2023-08-07T17:29:01;100449.38;;;19.86;51.33
43824;BME280;29470;53.550;9.926;2023-08-07T17:34:04;100450.81;;;20.06;52.00
43824;BME280;29470;53.550;9.926;2023-08-07T17:39:08;100462.63;;;19.27;57.76
43824;BME280;29470;53.550;9.926;2023-08-07T17:44:11;100482.41;;;18.61;64.80
43824;BME280;29470;53.550;9.926;2023-08-07T17:49:14;100483.53;;;18.42;70.88
43824;BME280;29470;53.550;9.926;2023-08-07T17:54:18;100494.66;;;18.08;74.95
43824;BME280;29470;53.550;9.926;2023-08-07T17:59:21;100489.75;;;17.93;77.40
43824;BME280;29470;53.550;9.926;2023-08-07T18:04:24;100478.06;;;17.84;79.10
43824;BME280;29470;53.550;9.926;2023-08-07T18:09:28;100481.25;;;17.50;78.64
43824;BME280;29470;53.550;9.926;2023-08-07T18:14:31;100466.81;;;17.37;77.18
43824;BME280;29470;53.550;9.926;2023-08-07T18:19:34;100464.47;;;17.94;75.41
43824;BME280;29470;53.550;9.926;2023-08-07T18:24:38;100464.50;;;17.70;76.42
43824;BME280;29470;53.550;9.926;2023-08-07T18:29:41;100488.22;;;18.24;75.12
43824;BME280;29470;53.550;9.926;2023-08-07T18:34:44;100475.84;;;17.70;77.81
43824;BME280;29470;53.550;9.926;2023-08-07T18:39:48;100480.72;;;18.09;78.72
43824;BME280;29470;53.550;9.926;2023-08-07T18:44:50;100485.41;;;18.18;79.05
43824;BME280;29470;53.550;9.926;2023-08-07T18:49:53;100479.66;;;18.04;80.49
43824;BME280;29470;53.550;9.926;2023-08-07T18:54:57;100458.16;;;18.39;76.91
43824;BME280;29470;53.550;9.926;2023-08-07T19:00:00;100462.41;;;18.35;75.62
43824;BME280;29470;53.550;9.926;2023-08-07T19:05:05;100471.81;;;18.04;76.26
43824;BME280;29470;53.550;9.926;2023-08-07T19:10:10;100461.88;;;18.20;75.05
43824;BME280;29470;53.550;9.926;2023-08-07T19:15:13;100467.94;;;18.45;73.47
43824;BME280;29470;53.550;9.926;2023-08-07T19:20:18;100467.69;;;18.37;73.54
43824;BME280;29470;53.550;9.926;2023-08-07T19:25:22;100470.34;;;18.13;73.73
43824;BME280;29470;53.550;9.926;2023-08-07T19:30:25;100469.59;;;18.43;72.50
43824;BME280;29470;53.550;9.926;2023-08-07T19:35:31;100472.66;;;18.29;72.89
43824;BME280;29470;53.550;9.926;2023-08-07T19:40:38;100479.22;;;18.42;72.23
43824;BME280;29470;53.550;9.926;2023-08-07T19:45:43;100479.84;;;18.09;73.05
43824;BME280;29470;53.550;9.926;2023-08-07T19:50:46;100482.91;;;18.23;73.63
43824;BME280;29470;53.550;9.926;2023-08-07T19:55:50;100483.66;;;18.45;72.04
43824;BME280;29470;53.550;9.926;2023-08-07T20:00:53;100496.19;;;18.28;72.61
43824;BME280;29470;53.550;9.926;2023-08-07T20:05:56;100491.09;;;18.32;74.35
43824;BME280;29470;53.550;9.926;2023-08-07T20:11:00;100498.53;;;17.71;77.63
43824;BME280;29470;53.550;9.926;2023-08-07T20:16:05;100505.09;;;17.35;77.66
43824;BME280;29470;53.550;9.926;2023-08-07T20:21:08;100505.13;;;17.60;79.53
43824;BME280;29470;53.550;9.926;2023-08-07T20:26:12;100498.38;;;17.91;77.90
43824;BME280;29470;53.550;9.926;2023-08-07T20:31:15;100494.81;;;18.13;76.49
43824;BME280;29470;53.550;9.926;2023-08-07T20:36:18;100494.06;;;17.93;76.35
43824;BME280;29470;53.550;9.926;2023-08-07T20:41:22;100501.66;;;18.09;75.64
43824;BME280;29470;53.550;9.926;2023-08-07T20:46:25;100491.25;;;17.62;77.21
43824;BME280;29470;53.550;9.926;2023-08-07T20:51:28;100497.38;;;18.11;74.03
43824;BME280;29470;53.550;9.926;2023-08-07T20:56:34;100488.47;;;18.06;72.48
43824;BME280;29470;53.550;9.926;2023-08-07T21:01:36;100492.03;;;18.08;73.01
43824;BME280;29470;53.550;9.926;2023-08-07T21:06:41;100489.63;;;18.15;70.44
43824;BME280;29470;53.550;9.926;2023-08-07T21:11:45;100487.00;;;18.40;67.84
43824;BME280;29470;53.550;9.926;2023-08-07T21:16:48;100486.59;;;18.28;68.30
43824;BME280;29470;53.550;9.926;2023-08-07T21:21:51;100485.00;;;18.33;66.44
43824;BME280;29470;53.550;9.926;2023-08-07T21:26:55;100492.94;;;18.35;66.94
43824;BME280;29470;53.550;9.926;2023-08-07T21:31:58;100494.84;;;18.40;67.84
43824;BME280;29470;53.550;9.926;2023-08-07T21:37:02;100487.53;;;18.30;68.58
43824;BME280;29470;53.550;9.926;2023-08-07T21:42:07;100476.28;;;18.33;67.51
43824;BME280;29470;53.550;9.926;2023-08-07T21:47:10;100476.31;;;18.08;67.44
43824;BME280;29470;53.550;9.926;2023-08-07T21:52:12;100470.56;;;18.19;65.53
43824;BME280;29470;53.550;9.926;2023-08-07T21:57:17;100461.25;;;18.27;65.63
43824;BME280;29470;53.550;9.926;2023-08-07T22:02:19;100457.28;;;18.13;64.94
43824;BME280;29470;53.550;9.926;2023-08-07T22:07:22;100449.84;;;18.25;63.52
43824;BME280;29470;53.550;9.926;2023-08-07T22:12:26;100454.38;;;17.79;65.85
43824;BME280;29470;53.550;9.926;2023-08-07T22:17:29;100442.66;;;17.69;65.85
43824;BME280;29470;53.550;9.926;2023-08-07T22:22:32;100440.88;;;17.92;65.34
43824;BME280;29470;53.550;9.926;2023-08-07T22:27:37;100438.09;;;18.12;64.88
43824;BME280;29470;53.550;9.926;2023-08-07T22:32:40;100427.41;;;18.06;65.71
43824;BME280;29470;53.550;9.926;2023-08-07T22:37:44;100438.16;;;17.89;66.08
43824;BME280;29470;53.550;9.926;2023-08-07T22:42:48;100442.28;;;18.07;64.47
43824;BME280;29470;53.550;9.926;2023-08-07T22:47:51;100434.00;;;18.20;64.75
43824;BME280;29470;53.550;9.926;2023-08-07T22:52:54;100435.56;;;17.91;64.69
43824;BME280;29470;53.550;9.926;2023-08-07T22:57:58;100435.09;;;18.01;64.36
43824;BME280;29470;53.550;9.926;2023-08-07T23:03:01;100452.84;;;17.86;64.12
43824;BME280;29470;53.550;9.926;2023-08-07T23:08:05;100441.75;;;17.93;63.95
43824;BME280;29470;53.550;9.926;2023-08-07T23:13:11;100425.75;;;18.35;62.16
43824;BME280;29470;53.550;9.926;2023-08-07T23:18:14;100423.03;;;18.06;62.26
43824;BME280;29470;53.550;9.926;2023-08-07T23:23:17;100422.06;;;17.78;63.90
43824;BME280;29470;53.550;9.926;2023-08-07T23:28:21;100447.75;;;17.64;65.07
43824;BME280;29470;53.550;9.926;2023-08-07T23:33:24;100440.47;;;17.56;66.61
43824;BME280;29470;53.550;9.926;2023-08-07T23:38:27;100437.53;;;17.72;67.08
43824;BME280;29470;53.550;9.926;2023-08-07T23:43:31;100425.72;;;17.84;66.12
43824;BME280;29470;53.550;9.926;2023-08-07T23:48:34;100432.81;;;17.36;68.92
43824;BME280;29470;53.550;9.926;2023-08-07T23:53:37;100429.88;;;17.77;67.88
43824;BME280;29470;53.550;9.926;2023-08-07T23:58:41;100430.44;;;17.68;67.78
